Time;durP1;ratioP1;P1;durP2;ratioP2;P2;SDS_P1;SDS_P2;PMS_P1;PMS_P2;Temp;Humidity;BMP_temperature;BMP_pressure;BME280_temperature;BME280_humidity;BME280_pressure;Samples;Min_cycle;Max_cycle;Signal;HPM_P1;HPM_P2
2021/01/06 00:00:16;;;;;;;39.45;22.52;;;0.40;93.70;;;;;;6375025;27;20084;-77
2021/01/06 00:03:18;;;;;;;39.40;23.30;;;0.50;93.30;;;;;;6374673;27;20039;-77
2021/01/06 00:06:27;;;;;;;36.63;21.45;;;1.40;93.90;;;;;;6374988;27;20042;-77
2021/01/06 00:09:27;;;;;;;42.70;22.95;;;0.50;92.30;;;;;;6375336;27;20050;-79
2021/01/06 00:12:28;;;;;;;41.95;24.73;;;1.80;93.90;;;;;;6374871;27;20027;-79
2021/01/06 00:15:32;;;;;;;46.22;24.55;;;1.30;93.80;;;;;;6374751;27;20015;-79
2021/01/06 00:18:33;;;;;;;44.55;23.13;;;0.90;93.70;;;;;;6356872;27;20057;-78
2021/01/06 00:21:37;;;;;;;42.03;23.13;;;0.80;94.00;;;;;;6374870;27;20019;-79
2021/01/06 00:24:37;;;;;;;41.47;24.48;;;2.10;94.20;;;;;;6356635;27;20031;-77
2021/01/06 00:27:38;;;;;;;42.42;23.73;;;1.50;94.00;;;;;;6374802;27;20338;-77
2021/01/06 00:30:48;;;;;;;46.05;25.40;;;0.90;93.70;;;;;;6374151;27;20027;-76
2021/01/06 00:33:49;;;;;;;44.95;23.48;;;0.80;93.70;;;;;;6374262;27;20027;-77
2021/01/06 00:36:50;;;;;;;43.47;23.83;;;1.80;93.70;;;;;;6374275;27;20357;-77
2021/01/06 00:39:50;;;;;;;40.53;22.88;;;0.80;93.40;;;;;;6374374;27;20034;-77
2021/01/06 00:42:51;;;;;;;45.78;24.23;;;1.90;93.60;;;;;;6374523;27;20027;-77
2021/01/06 00:45:52;;;;;;;41.22;23.58;;;2.40;93.70;;;;;;6374364;27;20027;-77
2021/01/06 00:48:52;;;;;;;38.83;23.35;;;0.80;93.50;;;;;;6374246;27;20471;-77
2021/01/06 00:51:53;;;;;;;39.80;22.50;;;1.70;93.50;;;;;;6374156;27;20030;-79
2021/01/06 00:54:53;;;;;;;42.67;24.70;;;1.30;93.40;;;;;;6374025;27;20063;-78
2021/01/06 00:57:55;;;;;;;41.67;23.10;;;1.00;93.30;;;;;;6373736;27;20039;-77
2021/01/06 01:00:56;;;;;;;41.05;23.58;;;1.00;93.10;;;;;;6373673;27;20035;-77
2021/01/06 01:03:57;;;;;;;39.95;23.23;;;1.20;93.20;;;;;;6373346;27;20544;-77
2021/01/06 01:06:57;;;;;;;38.83;21.83;;;2.00;93.30;;;;;;6373401;27;20455;-77
2021/01/06 01:09:58;;;;;;;38.72;22.90;;;0.80;92.90;;;;;;6373503;27;20118;-77
2021/01/06 01:12:59;;;;;;;39.10;23.70;;;0.70;92.90;;;;;;6373667;27;20030;-77
2021/01/06 01:16:00;;;;;;;44.83;24.45;;;2.50;93.20;;;;;;6373734;27;20020;-77
2021/01/06 01:19:01;;;;;;;39.72;22.52;;;1.10;93.00;;;;;;6373412;27;20092;-77
2021/01/06 01:22:01;;;;;;;44.55;23.65;;;1.20;93.10;;;;;;6373447;27;20031;-78
2021/01/06 01:25:02;;;;;;;44.10;24.08;;;1.70;93.20;;;;;;6373074;27;20047;-77
2021/01/06 01:28:03;;;;;;;42.10;23.77;;;0.80;92.90;;;;;;6373290;27;20015;-77
2021/01/06 01:31:03;;;;;;;42.22;24.77;;;0.70;93.10;;;;;;6373102;27;20399;-77
2021/01/06 01:34:04;;;;;;;44.38;22.95;;;2.30;93.40;;;;;;6372919;27;20027;-77
2021/01/06 01:37:05;;;;;;;48.72;25.40;;;0.90;93.00;;;;;;6372980;27;20094;-77
2021/01/06 01:40:06;;;;;;;41.53;23.45;;;1.50;93.60;;;;;;6372781;27;20035;-77
2021/01/06 01:43:18;;;;;;;42.72;24.60;;;0.70;93.00;;;;;;6372998;27;20023;-77
2021/01/06 01:46:43;;;;;;;42.75;22.83;;;1.90;93.80;;;;;;6372857;27;20338;-78
2021/01/06 01:49:47;;;;;;;43.58;24.23;;;0.70;92.30;;;;;;6354721;27;20026;-77
2021/01/06 01:52:50;;;;;;;42.50;24.35;;;1.20;93.60;;;;;;6338201;28;20038;-79
2021/01/06 01:55:51;;;;;;;43.17;24.05;;;0.80;93.70;;;;;;6354819;28;20398;-76
2021/01/06 01:58:51;;;;;;;42.75;24.27;;;2.10;94.00;;;;;;6354184;28;20026;-79
2021/01/06 02:01:52;;;;;;;43.05;25.42;;;1.40;93.90;;;;;;6354200;28;20028;-77
2021/01/06 02:04:57;;;;;;;46.58;24.88;;;0.70;93.90;;;;;;6336974;28;20047;-76
2021/01/06 02:08:29;;;;;;;50.53;25.27;;;0.20;99.90;;;;;;6354169;28;20470;-77
2021/01/06 02:11:37;;;;;;;44.30;24.75;;;0.50;99.90;;;;;;6339942;28;20027;-77
2021/01/06 02:14:44;;;;;;;43.88;24.30;;;1.00;99.90;;;;;;6354368;28;20019;-78
2021/01/06 02:17:44;;;;;;;46.55;22.92;;;0.50;99.90;;;;;;6337716;28;20022;-79
2021/01/06 02:21:04;;;;;;;44.80;24.73;;;0.50;99.90;;;;;;6372326;28;20074;-79
2021/01/06 02:24:06;;;;;;;43.90;24.67;;;0.60;99.90;;;;;;6355013;28;20047;-77
2021/01/06 02:27:07;;;;;;;47.33;26.13;;;;;;;;;;6354386;28;20030;-76
2021/01/06 02:30:08;;;;;;;41.60;25.05;;;;;;;;;;6372566;28;20015;-78
2021/01/06 02:33:09;;;;;;;45.25;25.92;;;;;;;;;;6372516;28;20026;-77
2021/01/06 02:36:10;;;;;;;48.20;25.20;;;;;;;;;;6372152;28;20365;-78
2021/01/06 02:39:11;;;;;;;47.92;26.08;;;0.60;94.20;;;;;;6353932;28;20055;-77
2021/01/06 02:42:11;;;;;;;44.50;26.08;;;1.70;94.50;;;;;;6337003;28;20067;-77
2021/01/06 02:45:13;;;;;;;43.33;25.70;;;1.10;94.30;;;;;;6354172;28;20059;-78
2021/01/06 02:48:14;;;;;;;46.53;26.13;;;0.70;94.00;;;;;;6337704;28;20019;-78
2021/01/06 02:51:24;;;;;;;43.28;25.10;;;1.30;94.10;;;;;;6354162;28;20062;-77
2021/01/06 02:54:31;;;;;;;42.35;23.90;;;0.70;92.80;;;;;;6340728;27;20019;-77
2021/01/06 02:57:33;;;;;;;44.67;25.75;;;0.70;94.10;;;;;;6341731;27;20055;-79
2021/01/06 03:00:33;;;;;;;49.05;25.80;;;1.00;94.20;;;;;;6358618;27;20023;-77
2021/01/06 03:03:34;;;;;;;45.75;25.60;;;0.90;94.30;;;;;;6376293;27;20042;-79
2021/01/06 03:06:44;;;;;;;45.25;25.35;;;1.70;94.70;;;;;;6324442;27;20054;-79
2021/01/06 03:09:45;;;;;;;46.25;26.00;;;0.70;93.30;;;;;;6359357;27;20030;-77
2021/01/06 03:12:50;;;;;;;45.33;25.10;;;0.80;94.60;;;;;;6376435;27;20027;-77
2021/01/06 03:15:50;;;;;;;46.72;24.67;;;2.10;95.00;;;;;;6358453;27;20026;-77
2021/01/06 03:18:51;;;;;;;45.58;25.92;;;0.90;94.60;;;;;;6358462;27;20023;-77
2021/01/06 03:21:52;;;;;;;49.67;26.75;;;2.00;94.80;;;;;;6340766;27;20445;-78
2021/01/06 03:25:06;;;;;;;48.08;26.15;;;0.90;94.40;;;;;;6340893;27;20023;-78
2021/01/06 03:28:07;;;;;;;48.58;26.85;;;;;;;;;;6357824;27;20372;-78
2021/01/06 03:31:10;;;;;;;47.90;27.05;;;0.60;92.80;;;;;;6357758;27;20029;-77
2021/01/06 03:34:25;;;;;;;51.40;27.42;;;2.50;94.90;;;;;;6340557;27;20019;-77
2021/01/06 03:37:32;;;;;;;46.72;26.77;;;2.20;94.90;;;;;;6340896;27;20117;-77
2021/01/06 03:40:36;;;;;;;46.10;25.33;;;1.60;94.80;;;;;;6341109;27;20072;-77
2021/01/06 03:43:40;;;;;;;42.53;25.35;;;1.00;94.70;;;;;;6357348;27;20101;-77
2021/01/06 03:47:12;;;;;;;45.08;25.85;;;0.60;94.50;;;;;;6357375;27;20098;-77
2021/01/06 03:50:37;;;;;;;48.33;26.58;;;2.20;95.10;;;;;;6321458;27;20039;-77
2021/01/06 03:53:41;;;;;;;42.65;25.67;;;0.80;93.60;;;;;;6357727;27;20015;-79
2021/01/06 03:56:41;;;;;;;48.15;28.10;;;0.60;94.80;;;;;;6357644;27;20524;-77
2021/01/06 03:59:45;;;;;;;48.50;27.13;;;0.70;94.90;;;;;;6339739;27;20035;-77
2021/01/06 04:02:45;;;;;;;46.33;26.02;;;2.20;95.30;;;;;;6340196;27;20050;-78
2021/01/06 04:05:46;;;;;;;51.50;27.52;;;0.70;99.90;;;;;;6338489;27;20027;-77
2021/01/06 04:08:50;;;;;;;49.63;27.92;;;2.40;95.30;;;;;;6357006;27;20047;-78
2021/01/06 04:12:06;;;;;;;47.50;26.80;;;0.50;99.90;;;;;;6356585;27;20012;-77
2021/01/06 04:15:08;;;;;;;52.25;27.58;;;0.60;99.90;;;;;;6358372;27;20076;-77
2021/01/06 04:18:09;;;;;;;52.13;27.00;;;;;;;;;;6375381;27;20022;-77
2021/01/06 04:21:11;;;;;;;50.22;27.83;;;0.50;99.90;;;;;;6375007;27;20027;-77
2021/01/06 04:24:13;;;;;;;51.60;26.83;;;0.40;99.90;;;;;;6374693;27;20019;-77
2021/01/06 04:27:17;;;;;;;45.08;26.17;;;0.50;99.90;;;;;;6374544;27;20026;-78
2021/01/06 04:30:34;;;;;;;44.20;25.65;;;0.50;99.90;;;;;;6356276;27;20019;-77
2021/01/06 04:33:49;;;;;;;51.75;27.17;;;0.50;99.10;;;;;;6357764;27;20468;-77
2021/01/06 04:36:50;;;;;;;49.30;26.83;;;;;;;;;;6374304;27;20023;-77
2021/01/06 04:39:51;;;;;;;49.40;27.00;;;0.60;99.90;;;;;;6374065;27;20028;-79
2021/01/06 04:42:51;;;;;;;45.72;27.02;;;0.50;99.90;;;;;;6374148;27;20027;-77
2021/01/06 04:46:29;;;;;;;45.45;27.05;;;0.70;99.90;;;;;;6374081;27;20031;-77
2021/01/06 04:49:42;;;;;;;49.38;28.27;;;0.50;99.90;;;;;;6374031;27;20365;-77
2021/01/06 04:53:09;;;;;;;46.88;26.67;;;0.60;99.50;;;;;;6355651;27;20042;-77
2021/01/06 04:56:12;;;;;;;49.85;27.35;;;0.70;94.10;;;;;;6340259;27;20114;-78
2021/01/06 04:59:34;;;;;;;48.60;28.30;;;0.80;95.30;;;;;;6373653;27;20037;-78
2021/01/06 05:02:42;;;;;;;46.30;26.58;;;0.60;94.10;;;;;;6373430;27;20023;-77
2021/01/06 05:05:59;;;;;;;48.60;28.90;;;0.60;94.40;;;;;;6356171;27;20399;-78
2021/01/06 05:09:04;;;;;;;50.05;27.38;;;0.60;94.30;;;;;;6355237;27;20505;-79
2021/01/06 05:12:12;;;;;;;48.67;27.02;;;2.10;95.80;;;;;;6355904;27;20019;-78
2021/01/06 05:15:27;;;;;;;54.10;29.10;;;0.50;99.90;;;;;;6355394;27;20372;-77
2021/01/06 05:18:28;;;;;;;52.97;28.58;;;0.60;94.60;;;;;;6373491;27;20068;-77
2021/01/06 05:21:29;;;;;;;54.78;29.48;;;0.50;99.90;;;;;;6354755;27;20031;-78
2021/01/06 05:24:41;;;;;;;58.35;27.92;;;0.50;99.90;;;;;;6355119;27;20038;-77
2021/01/06 05:27:41;;;;;;;56.97;28.00;;;0.50;99.90;;;;;;6354937;27;20038;-77
2021/01/06 05:30:42;;;;;;;54.15;29.15;;;0.60;99.90;;;;;;6373451;27;20035;-79
2021/01/06 05:33:52;;;;;;;56.30;27.70;;;0.70;99.90;;;;;;6373199;27;20019;-78
2021/01/06 05:36:53;;;;;;;56.95;31.23;;;0.20;99.90;;;;;;6373518;27;20029;-78
2021/01/06 05:39:56;;;;;;;54.60;29.00;;;0.40;99.90;;;;;;6373060;27;20126;-77
2021/01/06 05:42:58;;;;;;;;;;;0.80;99.90;;;;;;6338721;27;20384;-77
2021/01/06 05:46:02;;;;;;;55.10;28.10;;;0.70;99.90;;;;;;6373093;27;19925;-79
2021/01/06 05:49:15;;;;;;;58.40;30.15;;;0.60;96.00;;;;;;6338733;27;20027;-77
2021/01/06 05:52:15;;;;;;;;;;;0.60;94.80;;;;;;6339632;27;20058;-78
2021/01/06 05:55:16;;;;;;;54.80;27.30;;;1.30;97.50;;;;;;6354811;28;19928;-78
2021/01/06 05:58:26;;;;;;;56.58;31.20;;;1.10;96.00;;;;;;6354772;28;20023;-78
2021/01/06 06:01:39;;;;;;;54.13;29.35;;;0.50;96.20;;;;;;6354385;28;20119;-79
2021/01/06 06:05:13;;;;;;;56.15;29.48;;;0.50;95.00;;;;;;6372715;28;20055;-77
2021/01/06 06:08:36;;;;;;;57.60;29.63;;;0.50;95.00;;;;;;6373230;28;20050;-78
2021/01/06 06:12:00;;;;;;;48.08;26.35;;;0.50;94.80;;;;;;6373051;27;20068;-77
2021/01/06 06:15:29;;;;;;;55.03;28.30;;;0.50;94.80;;;;;;6354671;28;20399;-77
2021/01/06 06:18:48;;;;;;;45.08;26.30;;;0.50;94.80;;;;;;6354447;28;20015;-78
2021/01/06 06:22:13;;;;;;;55.20;28.80;;;0.40;94.70;;;;;;6372736;28;20500;-77
2021/01/06 06:25:22;;;;;;;51.28;28.20;;;0.40;94.90;;;;;;6372646;27;20107;-77
2021/01/06 06:28:27;;;;;;;55.10;28.92;;;0.50;94.90;;;;;;6374664;27;20034;-78
2021/01/06 06:31:33;;;;;;;51.40;28.63;;;2.20;96.60;;;;;;6342860;27;20442;-77
2021/01/06 06:34:35;;;;;;;53.38;28.70;;;1.10;96.30;;;;;;6377678;27;20461;-78
2021/01/06 06:37:37;;;;;;;56.10;29.60;;;1.80;96.50;;;;;;6359589;27;20020;-77
2021/01/06 06:40:52;;;;;;;52.72;29.67;;;2.00;96.60;;;;;;6342198;27;20035;-77
2021/01/06 06:44:09;;;;;;;47.75;28.38;;;0.60;96.40;;;;;;6377628;27;20015;-77
2021/01/06 06:47:14;;;;;;;48.05;26.60;;;0.40;94.90;;;;;;6361444;27;20024;-78
2021/01/06 06:50:39;;;;;;;45.15;25.50;;;2.00;96.40;;;;;;6358915;27;20043;-77
2021/01/06 06:54:09;;;;;;;50.28;27.25;;;1.60;96.30;;;;;;6377155;27;20027;-77
2021/01/06 06:57:29;;;;;;;48.15;26.35;;;0.30;99.90;;;;;;6377450;27;20062;-78
2021/01/06 07:00:29;;;;;;;48.97;27.35;;;0.40;99.90;;;;;;6341744;27;20522;-77
2021/01/06 07:03:30;;;;;;;50.95;27.90;;;0.20;99.90;;;;;;6376738;27;20043;-78
2021/01/06 07:06:31;;;;;;;52.65;28.38;;;0.40;99.90;;;;;;6358599;27;20023;-78
2021/01/06 07:09:33;;;;;;;52.70;29.10;;;0.60;99.90;;;;;;6358730;27;20030;-77
2021/01/06 07:12:38;;;;;;;50.47;28.95;;;0.50;99.90;;;;;;6377082;27;20064;-77
2021/01/06 07:15:50;;;;;;;53.58;27.92;;;0.40;99.90;;;;;;6376876;27;20023;-77
2021/01/06 07:18:52;;;;;;;46.25;26.67;;;0.60;96.60;;;;;;6376743;27;20057;-77
2021/01/06 07:22:08;;;;;;;58.70;30.33;;;0.30;96.60;;;;;;6376399;27;20120;-78
2021/01/06 07:25:21;;;;;;;54.50;29.45;;;0.40;95.40;;;;;;6360619;27;20057;-78
2021/01/06 07:28:22;;;;;;;;;;;1.60;97.00;;;;;;6358702;27;20035;-78
2021/01/06 07:31:25;;;;;;;48.28;26.50;;;0.50;96.90;;;;;;6357851;27;19904;-78
2021/01/06 07:34:38;;;;;;;51.13;28.40;;;0.60;96.70;;;;;;6376116;27;20019;-77
2021/01/06 07:37:40;;;;;;;51.45;27.98;;;0.50;95.40;;;;;;6342530;27;20023;-77
2021/01/06 07:40:42;;;;;;;54.05;29.45;;;0.60;96.60;;;;;;6376015;27;20377;-77
2021/01/06 07:43:57;;;;;;;56.50;27.92;;;1.90;96.90;;;;;;6341371;27;20030;-79
2021/01/06 07:47:01;;;;;;;54.75;29.02;;;1.90;96.80;;;;;;6375910;27;20410;-77
2021/01/06 07:50:04;;;;;;;53.40;27.48;;;0.50;95.10;;;;;;6376023;27;20019;-78
2021/01/06 07:53:12;;;;;;;50.58;28.02;;;0.40;96.30;;;;;;6357255;27;20035;-77
2021/01/06 07:56:22;;;;;;;52.42;29.17;;;1.50;96.80;;;;;;6357791;27;20018;-79
2021/01/06 07:59:28;;;;;;;52.08;28.58;;;1.40;96.80;;;;;;6340597;27;20502;-77
2021/01/06 08:02:38;;;;;;;52.42;28.52;;;0.40;95.40;;;;;;6340723;27;20015;-77
2021/01/06 08:05:39;;;;;;;55.47;30.02;;;0.70;96.70;;;;;;6340838;27;20361;-79
2021/01/06 08:08:47;;;;;;;51.92;28.25;;;0.80;96.70;;;;;;6375320;27;20058;-77
2021/01/06 08:11:47;;;;;;;50.47;27.40;;;0.40;95.40;;;;;;6375537;27;20023;-77
2021/01/06 08:14:48;;;;;;;53.05;28.52;;;0.80;96.80;;;;;;6357123;27;20015;-77
2021/01/06 08:18:04;;;;;;;50.97;28.48;;;0.30;99.90;;;;;;6374996;27;20023;-77
2021/01/06 08:21:07;;;;;;;47.40;28.83;;;0.40;94.90;;;;;;6357378;27;20449;-78
2021/01/06 08:24:22;;;;;;;48.03;28.77;;;0.40;96.60;;;;;;6356541;27;20037;-77
2021/01/06 08:27:36;;;;;;;47.67;26.52;;;0.60;95.40;;;;;;6375050;27;20076;-77
2021/01/06 08:30:36;;;;;;;56.35;29.65;;;0.60;95.40;;;;;;6375033;27;20034;-79
2021/01/06 08:33:53;;;;;;;58.25;30.88;;;0.60;96.40;;;;;;6375060;27;20024;-77
2021/01/06 08:37:05;;;;;;;53.92;29.08;;;2.30;96.80;;;;;;6339367;27;20372;-77
2021/01/06 08:40:23;;;;;;;48.67;28.65;;;0.70;95.10;;;;;;6357941;27;20027;-77
2021/01/06 08:43:23;;;;;;;51.60;28.20;;;0.60;96.10;;;;;;6374612;27;20023;-77
2021/01/06 08:46:35;;;;;;;49.10;29.27;;;1.90;96.60;;;;;;6355981;27;20022;-79
2021/01/06 08:49:37;;;;;;;51.25;28.27;;;2.20;96.60;;;;;;6374157;27;20027;-77
2021/01/06 08:52:38;;;;;;;60.10;31.58;;;2.20;96.50;;;;;;6355248;27;20027;-77
2021/01/06 08:55:40;;;;;;;54.20;31.08;;;1.30;96.40;;;;;;6339082;27;20027;-77
2021/01/06 08:58:45;;;;;;;62.15;32.30;;;0.80;96.30;;;;;;6355899;27;20028;-77
2021/01/06 09:01:49;;;;;;;59.88;32.78;;;0.60;95.00;;;;;;6374101;27;20038;-78
2021/01/06 09:04:49;;;;;;;56.28;30.50;;;0.70;95.20;;;;;;6373958;27;20101;-77
2021/01/06 09:07:53;;;;;;;57.97;29.73;;;0.90;96.50;;;;;;6373822;27;20019;-77
2021/01/06 09:11:07;;;;;;;53.15;30.45;;;2.10;96.70;;;;;;6374047;27;20019;-77
2021/01/06 09:14:17;;;;;;;47.13;26.35;;;0.80;95.10;;;;;;6356839;27;20035;-77
2021/01/06 09:17:32;;;;;;;45.28;26.48;;;2.40;96.50;;;;;;6374208;27;20015;-77
2021/01/06 09:20:47;;;;;;;46.80;25.23;;;0.90;94.70;;;;;;6340065;27;20123;-80
2021/01/06 09:23:50;;;;;;;43.85;24.63;;;0.90;94.60;;;;;;6355791;27;20071;-77
2021/01/06 09:26:53;;;;;;;39.35;23.77;;;2.50;96.10;;;;;;6338268;27;20024;-77
2021/01/06 09:29:54;;;;;;;40.67;25.35;;;2.60;96.00;;;;;;6373366;27;20027;-78
2021/01/06 09:32:55;;;;;;;41.40;24.00;;;0.90;99.90;;;;;;6338126;27;20023;-79
2021/01/06 09:35:56;;;;;;;39.92;23.17;;;1.30;99.90;;;;;;6355362;27;20015;-77
2021/01/06 09:38:56;;;;;;;36.78;21.90;;;2.10;95.00;;;;;;6353621;27;20369;-77
2021/01/06 09:41:58;;;;;;;32.35;20.63;;;1.60;95.50;;;;;;6338197;28;20019;-78
2021/01/06 09:44:58;;;;;;;33.20;20.27;;;1.20;95.40;;;;;;6354851;27;20026;-77
2021/01/06 09:48:00;;;;;;;32.47;20.27;;;1.60;94.70;;;;;;6354802;27;20023;-76
2021/01/06 09:51:01;;;;;;;32.33;20.63;;;2.80;95.60;;;;;;6373116;27;20027;-77
2021/01/06 09:54:03;;;;;;;31.80;18.77;;;1.20;99.90;;;;;;6337572;27;20031;-77
2021/01/06 09:57:06;;;;;;;33.22;20.10;;;1.20;99.90;;;;;;6338104;28;20019;-79
2021/01/06 10:00:21;;;;;;;29.55;18.63;;;1.30;95.00;;;;;;6372872;27;20066;-77
2021/01/06 10:03:30;;;;;;;26.23;17.00;;;1.30;93.40;;;;;;6359109;27;20081;-78
2021/01/06 10:06:44;;;;;;;30.85;18.25;;;2.80;95.50;;;;;;6378293;27;20031;-77
2021/01/06 10:09:46;;;;;;;29.50;17.92;;;2.30;95.40;;;;;;6360497;27;20027;-76
2021/01/06 10:13:04;;;;;;;24.98;16.73;;;1.70;94.60;;;;;;6359813;27;20023;-77
2021/01/06 10:16:08;;;;;;;26.70;17.33;;;2.10;96.40;;;;;;6343355;27;20086;-77
2021/01/06 10:19:27;;;;;;;27.13;17.15;;;1.50;96.40;;;;;;6377782;27;20453;-77
2021/01/06 10:22:40;;;;;;;35.28;20.60;;;1.60;94.50;;;;;;6377894;27;20406;-77
2021/01/06 10:25:41;;;;;;;;;;;1.50;95.20;;;;;;6361735;27;20061;-77
2021/01/06 10:28:47;;;;;;;33.38;19.00;;;2.00;96.10;;;;;;6359430;27;19910;-79
2021/01/06 10:32:12;;;;;;;29.52;19.95;;;1.50;96.60;;;;;;6359739;27;20452;-77
2021/01/06 10:35:33;;;;;;;38.63;20.80;;;1.60;95.70;;;;;;6377614;27;20185;-77
2021/01/06 10:38:43;;;;;;;25.70;16.77;;;2.10;97.10;;;;;;6377554;27;20113;-78
2021/01/06 10:41:43;;;;;;;21.85;15.30;;;1.90;95.90;;;;;;6377319;27;20426;-78
2021/01/06 10:44:54;;;;;;;24.17;15.07;;;1.90;99.90;;;;;;6377315;27;20023;-76
2021/01/06 10:47:54;;;;;;;25.55;17.42;;;3.40;96.70;;;;;;6359042;27;20023;-78
2021/01/06 10:50:55;;;;;;;22.15;15.95;;;1.90;96.70;;;;;;6377508;27;20030;-77
2021/01/06 10:53:55;;;;;;;23.98;15.23;;;3.00;96.20;;;;;;6377158;27;20380;-77
2021/01/06 10:56:57;;;;;;;28.00;16.25;;;2.50;96.90;;;;;;6341908;27;20049;-78
2021/01/06 11:00:21;;;;;;;23.85;15.32;;;2.00;99.90;;;;;;6341680;27;20026;-78
2021/01/06 11:03:34;;;;;;;20.63;13.80;;;2.90;96.40;;;;;;6363986;27;20395;-76
2021/01/06 11:07:02;;;;;;;22.98;14.90;;;2.40;96.70;;;;;;6376893;27;20023;-77
2021/01/06 11:10:14;;;;;;;17.83;12.48;;;2.00;99.90;;;;;;6358278;27;20079;-77
2021/01/06 11:13:14;;;;;;;18.33;13.33;;;2.20;99.90;;;;;;6357914;27;20118;-78
2021/01/06 11:16:28;;;;;;;16.40;12.38;;;3.80;96.70;;;;;;6376537;27;20023;-77
2021/01/06 11:19:41;;;;;;;20.73;12.73;;;2.40;95.10;;;;;;6341893;27;20027;-77
2021/01/06 11:22:43;;;;;;;21.75;14.65;;;2.90;95.70;;;;;;6376777;27;20081;-76
2021/01/06 11:25:48;;;;;;;18.45;13.45;;;2.90;96.20;;;;;;6358095;27;20030;-77
2021/01/06 11:29:01;;;;;;;16.83;12.43;;;2.20;99.90;;;;;;6376223;27;20348;-76
2021/01/06 11:32:02;;;;;;;20.55;13.13;;;3.60;96.00;;;;;;6376073;27;20062;-79
2021/01/06 11:35:15;;;;;;;22.52;13.50;;;3.30;96.50;;;;;;6376122;27;20367;-78
2021/01/06 11:38:33;;;;;;;;;;;3.30;95.90;;;;;;6341520;27;20050;-77
2021/01/06 11:41:34;;;;;;;18.60;13.23;;;2.30;95.50;;;;;;6375997;27;20051;-77
2021/01/06 11:44:56;;;;;;;16.80;12.43;;;2.40;99.90;;;;;;6375854;27;20027;-77
2021/01/06 11:48:02;;;;;;;21.00;13.52;;;2.30;92.10;;;;;;6375734;27;20023;-77
2021/01/06 11:51:20;;;;;;;17.88;13.10;;;2.80;94.20;;;;;;6357581;27;20068;-77
2021/01/06 11:54:25;;;;;;;19.63;12.82;;;2.50;92.70;;;;;;6375723;27;20346;-77
2021/01/06 11:57:28;;;;;;;15.48;11.43;;;3.60;99.90;;;;;;6340371;27;20457;-79
2021/01/06 12:00:38;;;;;;;15.55;11.30;;;3.10;94.70;;;;;;6375411;27;20023;-77
2021/01/06 12:04:15;;;;;;;16.38;11.73;;;3.40;94.20;;;;;;6375087;27;20039;-78
2021/01/06 12:07:53;;;;;;;17.27;11.32;;;2.30;93.40;;;;;;6375406;27;20050;-77
2021/01/06 12:11:02;;;;;;;15.95;11.98;;;2.30;93.60;;;;;;6375243;27;20038;-77
2021/01/06 12:14:36;;;;;;;13.90;11.38;;;3.40;94.90;;;;;;6375398;27;20019;-79
2021/01/06 12:17:40;;;;;;;15.10;11.20;;;2.10;93.90;;;;;;6356726;27;20045;-77
2021/01/06 12:20:45;;;;;;;15.50;11.70;;;3.40;95.40;;;;;;6340020;27;20026;-77
2021/01/06 12:23:45;;;;;;;16.48;12.32;;;2.80;94.70;;;;;;6356656;27;20513;-77
2021/01/06 12:26:57;;;;;;;14.50;11.85;;;2.10;95.10;;;;;;6373920;27;20030;-76
2021/01/06 12:30:09;;;;;;;18.80;13.85;;;2.40;94.70;;;;;;6374683;27;20163;-78
2021/01/06 12:33:34;;;;;;;16.52;12.38;;;2.10;94.00;;;;;;6374894;27;20023;-78
2021/01/06 12:36:37;;;;;;;18.77;13.20;;;2.10;93.90;;;;;;6356268;27;20065;-76
2021/01/06 12:40:09;;;;;;;22.33;14.82;;;2.80;95.00;;;;;;6356241;27;20050;-77
2021/01/06 12:43:17;;;;;;;16.58;11.65;;;2.00;94.20;;;;;;6356418;27;20039;-78
2021/01/06 12:46:18;;;;;;;15.00;11.50;;;2.40;95.30;;;;;;6339999;27;20405;-76
2021/01/06 12:49:29;;;;;;;13.52;11.43;;;3.50;94.80;;;;;;6374269;27;20031;-76
2021/01/06 12:52:39;;;;;;;15.73;11.60;;;1.90;94.10;;;;;;6355994;27;20075;-77
2021/01/06 12:55:51;;;;;;;15.85;12.40;;;3.10;95.40;;;;;;6356196;27;20019;-77
2021/01/06 12:59:22;;;;;;;15.52;11.80;;;1.70;94.40;;;;;;6355916;27;20235;-77
2021/01/06 13:02:30;;;;;;;16.63;12.68;;;1.80;94.40;;;;;;6355705;27;20430;-76
2021/01/06 13:05:30;;;;;;;13.38;10.82;;;1.70;94.30;;;;;;6356572;27;20106;-77
2021/01/06 13:08:38;;;;;;;14.32;11.23;;;2.30;95.90;;;;;;6338689;27;20023;-76
2021/01/06 13:11:38;;;;;;;15.73;11.63;;;2.60;95.30;;;;;;6339285;27;20019;-76
2021/01/06 13:14:43;;;;;;;15.75;11.93;;;3.10;99.90;;;;;;6373767;27;20026;-78
2021/01/06 13:17:44;;;;;;;16.98;12.50;;;3.00;96.10;;;;;;6355579;27;20110;-76
2021/01/06 13:20:54;;;;;;;14.63;11.80;;;1.60;95.00;;;;;;6355446;27;20374;-76
2021/01/06 13:23:54;;;;;;;17.17;12.95;;;1.80;94.50;;;;;;6373640;27;20035;-76
2021/01/06 13:27:03;;;;;;;15.65;11.95;;;1.80;99.90;;;;;;6373727;27;20027;-77
2021/01/06 13:30:34;;;;;;;17.80;13.10;;;1.90;99.90;;;;;;6373333;27;20035;-76
2021/01/06 13:34:13;;;;;;;15.63;12.18;;;1.70;95.70;;;;;;6320938;27;20054;-78
2021/01/06 13:37:13;;;;;;;16.77;12.80;;;1.60;99.90;;;;;;6356943;27;20072;-77
2021/01/06 13:40:19;;;;;;;17.55;13.68;;;2.00;99.90;;;;;;6373285;27;20402;-76
2021/01/06 13:43:40;;;;;;;18.58;12.73;;;1.50;94.50;;;;;;6338361;27;20062;-76
2021/01/06 13:46:52;;;;;;;22.55;14.32;;;1.50;94.20;;;;;;6356531;27;20026;-76
2021/01/06 13:50:18;;;;;;;17.38;13.02;;;1.60;96.30;;;;;;6373175;27;20372;-77
2021/01/06 13:53:40;;;;;;;15.80;12.32;;;1.50;94.80;;;;;;6357089;27;20079;-76
2021/01/06 13:56:46;;;;;;;19.20;13.13;;;1.60;94.30;;;;;;6372987;27;20015;-76
2021/01/06 13:59:52;;;;;;;16.67;13.15;;;1.80;96.00;;;;;;6337679;28;20042;-76
2021/01/06 14:03:27;;;;;;;19.30;13.55;;;1.50;93.90;;;;;;6338093;28;20089;-78
2021/01/06 14:06:29;;;;;;;16.65;12.32;;;1.50;93.90;;;;;;6373004;28;20027;-76
2021/01/06 14:10:08;;;;;;;17.00;13.20;;;1.90;95.90;;;;;;6337818;28;20023;-77
2021/01/06 14:13:38;;;;;;;18.10;12.93;;;1.30;99.90;;;;;;6372775;27;20035;-76
2021/01/06 14:16:59;;;;;;;21.42;14.00;;;1.40;94.00;;;;;;6345761;27;20076;-76
2021/01/06 14:20:18;;;;;;;20.00;14.38;;;1.60;94.60;;;;;;6354347;28;20030;-76
2021/01/06 14:23:36;;;;;;;20.63;14.50;;;1.70;93.90;;;;;;6372733;27;20387;-77
2021/01/06 14:27:10;;;;;;;18.58;13.70;;;1.50;99.90;;;;;;6356010;28;20031;-77
2021/01/06 14:30:33;;;;;;;20.33;14.30;;;1.40;94.30;;;;;;6281543;28;20046;-77
2021/01/06 14:33:49;;;;;;;20.10;12.82;;;2.30;95.00;;;;;;6337669;28;20024;-76
2021/01/06 14:37:09;;;;;;;18.20;13.88;;;1.60;99.90;;;;;;6354845;27;20027;-78
2021/01/06 14:40:19;;;;;;;20.25;14.77;;;1.60;94.30;;;;;;6356926;28;20027;-76
2021/01/06 14:43:38;;;;;;;20.75;14.55;;;1.60;93.90;;;;;;6372452;27;20457;-76
2021/01/06 14:46:41;;;;;;;20.77;14.07;;;2.00;95.90;;;;;;6372521;28;20024;-78
2021/01/06 14:50:00;;;;;;;19.00;13.20;;;2.80;95.80;;;;;;6356248;27;20023;-76
2021/01/06 14:53:17;;;;;;;19.52;13.50;;;1.50;93.70;;;;;;6358845;27;20023;-77
2021/01/06 14:56:24;;;;;;;18.00;12.85;;;1.70;94.40;;;;;;6360060;27;20468;-76
2021/01/06 14:59:40;;;;;;;20.25;13.63;;;1.50;93.80;;;;;;6342338;27;20034;-76
2021/01/06 15:02:42;;;;;;;18.73;12.77;;;1.80;95.20;;;;;;6341606;27;20045;-76
2021/01/06 15:06:02;;;;;;;19.92;13.43;;;2.30;96.00;;;;;;6358816;27;20477;-76
2021/01/06 15:09:27;;;;;;;18.80;13.35;;;1.40;93.90;;;;;;6377028;27;20026;-76
2021/01/06 15:12:56;;;;;;;18.65;13.02;;;2.40;96.10;;;;;;6359855;27;20134;-77
2021/01/06 15:16:09;;;;;;;18.30;13.43;;;1.40;94.30;;;;;;6342656;27;20023;-78
2021/01/06 15:19:14;;;;;;;20.00;14.23;;;1.70;95.10;;;;;;6358416;27;20023;-77
2021/01/06 15:22:23;;;;;;;25.27;15.90;;;1.60;95.70;;;;;;6376644;27;20164;-78
2021/01/06 15:25:30;;;;;;;22.65;14.48;;;1.60;99.90;;;;;;6357962;27;20024;-77
2021/01/06 15:28:44;;;;;;;21.85;14.50;;;2.20;95.20;;;;;;6359162;27;20520;-77
2021/01/06 15:31:45;;;;;;;17.42;13.43;;;1.50;94.60;;;;;;6376121;27;20422;-77
2021/01/06 15:34:46;;;;;;;20.08;14.27;;;2.70;95.50;;;;;;6340703;27;20023;-77
2021/01/06 15:37:49;;;;;;;20.90;14.65;;;2.00;96.20;;;;;;6376011;27;20058;-77
2021/01/06 15:40:49;;;;;;;21.77;14.88;;;1.40;99.90;;;;;;6375820;27;20095;-77
2021/01/06 15:43:50;;;;;;;23.35;15.27;;;2.70;95.80;;;;;;6340693;27;20019;-77
2021/01/06 15:46:55;;;;;;;27.85;16.05;;;2.40;96.70;;;;;;6357620;27;20022;-77
2021/01/06 15:50:04;;;;;;;26.05;18.10;;;1.70;96.00;;;;;;6341083;27;20023;-78
2021/01/06 15:53:15;;;;;;;28.20;18.40;;;3.10;97.00;;;;;;6375849;27;20110;-76
2021/01/06 15:56:35;;;;;;;26.73;17.92;;;1.30;99.90;;;;;;6375511;27;20184;-76
2021/01/06 15:59:36;;;;;;;26.52;18.13;;;1.20;94.60;;;;;;6356959;27;20032;-77
2021/01/06 16:02:36;;;;;;;26.83;17.75;;;2.10;96.80;;;;;;6339864;27;20062;-77
2021/01/06 16:05:41;;;;;;;27.73;17.92;;;1.30;96.00;;;;;;6357423;27;20023;-76
2021/01/06 16:08:47;;;;;;;27.40;18.45;;;1.50;96.70;;;;;;6375422;27;20485;-76
2021/01/06 16:11:56;;;;;;;25.45;16.00;;;1.10;99.90;;;;;;6341082;27;20019;-78